Time;durP1;ratioP1;P1;durP2;ratioP2;P2;SDS_P1;SDS_P2;PMS_P1;PMS_P2;Temp;Humidity;BMP_temperature;BMP_pressure;BME280_temperature;BME280_humidity;BME280_pressure;Samples;Min_cycle;Max_cycle;Signal;HPM_P1;HPM_P2
2023/05/29 00:00:37;;;;;;;;;;;15.00;1.00;;;;;;5014054;28;20281;-81
2023/05/29 00:03:04;;;;;;;;;;;15.00;1.00;;;;;;5003884;28;19964;-74
2023/05/29 00:05:30;;;;;;;;;;;15.00;1.00;;;;;;5014628;28;19913;-74
2023/05/29 00:07:56;;;;;;;;;;;15.00;1.00;;;;;;5014329;28;19912;-74
2023/05/29 00:10:21;;;;;;;;;;;14.90;1.00;;;;;;5013035;28;19914;-73
2023/05/29 00:12:56;;;;;;;;;;;14.90;1.00;;;;;;5017346;28;19917;-74
2023/05/29 00:15:21;;;;;;;;;;;14.90;1.00;;;;;;5014620;28;19953;-74
2023/05/29 00:17:55;;;;;;;;;;;14.90;1.00;;;;;;5013112;28;19979;-81
2023/05/29 00:20:38;;;;;;;;;;;14.90;1.00;;;;;;4994003;28;19909;-81
2023/05/29 00:26:19;;;;;;;;;;;14.90;1.00;;;;;;5011442;28;19924;-81
2023/05/29 00:28:45;;;;;;;;;;;14.80;1.00;;;;;;5014547;28;19909;-81
2023/05/29 00:31:13;;;;;;;;;;;14.80;1.00;;;;;;5013045;28;20283;-81
2023/05/29 00:37:13;;;;;;;;;;;14.80;1.00;;;;;;5012461;28;19912;-81
2023/05/29 00:39:43;;;;;;;;;;;14.70;1.00;;;;;;5010325;28;19960;-81
2023/05/29 00:42:09;;;;;;;;;;;14.70;1.00;;;;;;5014200;28;19959;-81
2023/05/29 00:44:49;;;;;;;;;;;14.60;1.00;;;;;;5013775;28;19972;-81
2023/05/29 00:47:19;;;;;;;;;;;14.60;1.00;;;;;;5012903;28;19964;-81
2023/05/29 00:49:45;;;;;;;;;;;14.60;1.00;;;;;;5004442;28;20000;-81
2023/05/29 00:52:11;;;;;;;;;;;14.50;1.00;;;;;;5013710;28;20020;-81
2023/05/29 00:54:50;;;;;;;;;;;14.50;1.00;;;;;;5013588;28;19959;-81
2023/05/29 01:00:25;;;;;;;;;;;14.40;1.00;;;;;;5013524;28;19931;-81
2023/05/29 01:02:52;;;;;;;;;;;14.40;1.00;;;;;;5007791;28;19921;-74
2023/05/29 01:05:19;;;;;;;;;;;14.30;1.00;;;;;;4998398;28;20306;-74
2023/05/29 01:07:44;;;;;;;;;;;14.20;1.00;;;;;;5013476;28;19909;-74
2023/05/29 01:10:13;;;;;;;;;;;14.20;1.00;;;;;;5011844;28;20550;-74
2023/05/29 01:12:42;;;;;;;;;;;14.10;1.00;;;;;;5012464;28;19915;-74
2023/05/29 01:15:17;;;;;;;;;;;14.10;1.00;;;;;;5006235;28;19945;-74
2023/05/29 01:18:01;;;;;;;;;;;14.00;1.00;;;;;;5014111;28;20231;-74
2023/05/29 01:20:44;;;;;;;;;;;14.00;1.00;;;;;;5010530;28;19913;-75
2023/05/29 01:23:27;;;;;;;;;;;13.90;1.00;;;;;;5007935;28;19964;-74
2023/05/29 01:26:08;;;;;;;;;;;13.90;1.00;;;;;;5001269;28;19913;-74
2023/05/29 01:28:46;;;;;;;;;;;13.80;1.00;;;;;;5011391;28;20260;-74
2023/05/29 01:31:12;;;;;;;;;;;13.70;1.00;;;;;;5010902;28;19995;-74
2023/05/29 01:33:53;;;;;;;;;;;13.70;1.00;;;;;;5012393;28;20429;-81
2023/05/29 01:36:19;;;;;;;;;;;13.70;1.00;;;;;;5012989;28;19910;-81
2023/05/29 01:38:44;;;;;;;;;;;13.60;1.00;;;;;;5013808;28;20284;-81
2023/05/29 01:41:31;;;;;;;;;;;13.60;1.00;;;;;;5013616;28;19996;-81
2023/05/29 01:47:15;;;;;;;;;;;13.60;1.00;;;;;;5010721;28;19916;-81
2023/05/29 01:53:19;;;;;;;;;;;13.50;1.00;;;;;;5006022;28;19956;-81
2023/05/29 01:56:19;;;;;;;;;;;13.50;1.00;;;;;;5012220;28;19928;-81
2023/05/29 01:59:07;;;;;;;;;;;13.40;1.00;;;;;;4983999;28;20333;-81
2023/05/29 02:01:33;;;;;;;;;;;13.40;1.00;;;;;;5002287;28;19956;-81
2023/05/29 02:03:58;;;;;;;;;;;13.40;1.00;;;;;;5012779;28;19915;-74
2023/05/29 02:06:24;;;;;;;;;;;13.40;1.00;;;;;;4992620;28;19916;-74
2023/05/29 02:08:55;;;;;;;;;;;13.40;1.00;;;;;;5015113;28;19906;-74
2023/05/29 02:11:21;;;;;;;;;;;13.40;1.00;;;;;;5015706;28;19909;-75
2023/05/29 02:13:47;;;;;;;;;;;13.40;1.00;;;;;;5015141;28;20261;-75
2023/05/29 02:16:12;;;;;;;;;;;13.30;1.00;;;;;;5016125;28;19913;-75
2023/05/29 02:18:43;;;;;;;;;;;13.40;1.00;;;;;;5016929;28;19906;-81
2023/05/29 02:21:25;;;;;;;;;;;13.40;1.00;;;;;;5016444;28;19917;-82
2023/05/29 02:23:51;;;;;;;;;;;13.40;1.00;;;;;;4992468;28;19917;-81
2023/05/29 02:26:17;;;;;;;;;;;13.40;1.00;;;;;;4999139;28;19961;-82
2023/05/29 02:29:19;;;;;;;;;;;13.50;1.00;;;;;;5011942;28;20289;-81
2023/05/29 02:31:45;;;;;;;;;;;13.40;1.00;;;;;;5013038;28;19917;-82
2023/05/29 02:34:10;;;;;;;;;;;13.50;1.00;;;;;;5015225;28;19909;-81
2023/05/29 02:36:37;;;;;;;;;;;13.50;1.00;;;;;;5015024;28;19913;-82
2023/05/29 02:39:04;;;;;;;;;;;13.50;1.00;;;;;;5015545;28;19935;-82
2023/05/29 02:41:29;;;;;;;;;;;13.50;1.00;;;;;;5013578;28;19917;-81
2023/05/29 02:43:55;;;;;;;;;;;13.50;1.00;;;;;;5014493;28;20250;-82
2023/05/29 02:46:21;;;;;;;;;;;13.60;1.00;;;;;;5014904;28;19909;-81
2023/05/29 02:48:47;;;;;;;;;;;13.60;1.00;;;;;;5009067;28;20364;-82
2023/05/29 02:51:13;;;;;;;;;;;13.70;1.00;;;;;;4997648;28;20356;-82
2023/05/29 02:53:39;;;;;;;;;;;13.80;1.00;;;;;;5008064;28;20016;-81
2023/05/29 02:56:05;;;;;;;;;;;13.80;1.00;;;;;;5015247;28;19910;-82
2023/05/29 02:58:50;;;;;;;5.22;2.58;;;13.80;1.00;;;;;;5015939;28;20047;-82
2023/05/29 03:01:20;;;;;;;36.00;8.63;;;13.90;1.00;;;;;;5015615;28;20185;-82
2023/05/29 03:03:50;;;;;;;8.13;2.70;;;14.00;1.00;;;;;;5015435;28;20776;-74
2023/05/29 03:06:20;;;;;;;151.97;53.00;;;14.00;1.00;;;;;;5015193;28;20558;-74
2023/05/29 03:08:46;;;;;;;3.87;3.17;;;14.10;1.00;;;;;;4996931;28;20767;-73
2023/05/29 03:11:13;;;;;;;4.07;2.57;;;14.10;1.00;;;;;;5015459;28;20412;-74
2023/05/29 03:13:39;;;;;;;84.70;21.03;;;14.20;1.00;;;;;;4995988;28;20712;-74
2023/05/29 03:16:04;;;;;;;5.70;2.97;;;14.20;1.00;;;;;;5015531;28;20423;-83
2023/05/29 03:25:49;;;;;;;25.47;10.63;;;14.30;1.00;;;;;;5012720;28;20436;-86
2023/05/29 03:31:46;;;;;;;82.33;36.40;;;14.40;1.00;;;;;;4998818;28;20377;-85
2023/05/29 03:34:14;;;;;;;5.73;3.43;;;14.40;1.00;;;;;;4993809;28;20766;-85
2023/05/29 03:36:40;;;;;;;6.13;3.20;;;14.40;1.00;;;;;;5012706;28;20408;-85
2023/05/29 03:39:14;;;;;;;6.00;3.00;;;14.40;1.00;;;;;;4997413;28;20419;-85
2023/05/29 03:41:44;;;;;;;6.93;3.00;;;14.40;1.00;;;;;;5009539;28;20403;-85
2023/05/29 03:44:20;;;;;;;6.70;3.40;;;14.40;1.00;;;;;;4997811;28;20433;-85
2023/05/29 03:46:51;;;;;;;16.33;3.10;;;14.40;1.00;;;;;;5015211;28;20427;-85
2023/05/29 03:49:20;;;;;;;8.13;3.67;;;14.40;1.00;;;;;;4988125;28;20442;-84
2023/05/29 03:52:19;;;;;;;350.50;164.00;;;14.40;1.00;;;;;;4997417;28;20466;-85
2023/05/29 03:55:25;;;;;;;4.63;3.20;;;14.40;1.00;;;;;;5014773;28;20931;-86
2023/05/29 03:58:25;;;;;;;5.23;3.50;;;14.50;1.00;;;;;;4997560;28;20935;-85
2023/05/29 04:00:51;;;;;;;6.17;3.90;;;14.40;1.00;;;;;;4983432;28;20410;-84
2023/05/29 04:03:17;;;;;;;10.47;3.80;;;14.40;1.00;;;;;;4994128;28;20459;-85
2023/05/29 04:05:50;;;;;;;6.67;3.57;;;14.40;1.00;;;;;;5015004;28;20197;-82
2023/05/29 04:08:20;;;;;;;6.70;3.83;;;14.40;1.00;;;;;;5006321;28;20177;-82
2023/05/29 04:10:53;;;;;;;6.30;3.37;;;14.50;1.00;;;;;;5014471;28;20401;-81
2023/05/29 04:13:20;;;;;;;6.40;4.30;;;14.60;1.00;;;;;;5009185;28;20988;-81
2023/05/29 04:15:56;;;;;;;8.30;3.80;;;14.60;1.00;;;;;;4990762;28;20777;-81
2023/05/29 04:18:49;;;;;;;13.10;4.03;;;14.60;1.00;;;;;;4987423;28;20432;-81
2023/05/29 04:25:07;;;;;;;5.10;3.70;;;14.70;1.00;;;;;;5012753;28;20437;-85
2023/05/29 04:28:23;;;;;;;4.87;3.63;;;14.70;1.00;;;;;;4995986;28;20550;-85
2023/05/29 04:31:22;;;;;;;10.10;3.90;;;14.70;1.00;;;;;;5007810;28;20514;-85
2023/05/29 04:33:54;;;;;;;7.53;4.20;;;14.70;1.00;;;;;;5014109;28;20431;-86
2023/05/29 04:37:07;;;;;;;9.17;4.17;;;14.70;1.00;;;;;;5012204;28;20511;-83
2023/05/29 04:40:04;;;;;;;6.17;3.87;;;14.80;1.00;;;;;;4991478;28;20442;-84
2023/05/29 04:43:02;;;;;;;6.80;4.23;;;14.80;1.00;;;;;;4997497;28;20443;-85
2023/05/29 04:49:20;;;;;;;5.37;3.47;;;14.90;1.00;;;;;;5007196;28;20466;-85
2023/05/29 04:52:08;;;;;;;6.73;4.43;;;14.90;1.00;;;;;;5009374;28;20404;-81
2023/05/29 04:54:44;;;;;;;7.77;4.27;;;14.90;1.00;;;;;;5013835;28;20388;-81
2023/05/29 04:57:26;;;;;;;12.23;4.20;;;15.00;1.00;;;;;;5013569;28;20964;-82
2023/05/29 05:00:26;;;;;;;9.33;4.00;;;15.00;1.00;;;;;;5012774;28;20535;-82
2023/05/29 05:02:56;;;;;;;150.50;49.10;;;15.00;1.00;;;;;;5013610;28;20443;-82
2023/05/29 05:05:22;;;;;;;6.17;3.77;;;15.10;1.00;;;;;;5013802;28;20437;-83
2023/05/29 05:07:47;;;;;;;8.23;4.03;;;15.10;1.00;;;;;;5013621;28;20503;-82
2023/05/29 05:10:20;;;;;;;8.60;4.30;;;15.20;1.00;;;;;;5013119;28;20177;-82
2023/05/29 05:12:46;;;;;;;12.23;4.43;;;15.20;1.00;;;;;;5006818;28;20173;-82
2023/05/29 05:15:49;;;;;;;23.13;4.47;;;15.20;1.00;;;;;;5010483;28;20463;-82
2023/05/29 05:18:15;;;;;;;4.60;3.70;;;15.30;1.00;;;;;;5004104;28;20204;-82
2023/05/29 05:20:41;;;;;;;8.40;4.13;;;15.40;1.00;;;;;;4996073;28;20459;-85
2023/05/29 05:23:49;;;;;;;7.43;3.60;;;15.40;1.00;;;;;;5014209;28;20180;-85
2023/05/29 05:26:32;;;;;;;8.57;4.27;;;15.50;1.00;;;;;;5012644;28;20192;-87
2023/05/29 05:32:21;;;;;;;5.90;3.97;;;15.60;1.00;;;;;;5007526;28;20524;-85
2023/05/29 05:34:50;;;;;;;8.73;4.10;;;15.60;1.00;;;;;;5009970;28;20909;-85
2023/05/29 05:37:23;;;;;;;10.40;4.47;;;15.70;1.00;;;;;;4992618;28;20480;-85
2023/05/29 05:40:20;;;;;;;8.40;4.30;;;15.80;1.00;;;;;;5013974;28;20805;-86
2023/05/29 05:46:08;;;;;;;7.87;4.70;;;15.90;1.00;;;;;;5010339;28;20838;-86
2023/05/29 05:48:51;;;;;;;6.20;4.67;;;16.00;1.00;;;;;;4987266;28;20432;-86
2023/05/29 05:51:50;;;;;;;8.27;4.30;;;16.10;1.00;;;;;;5017105;28;20408;-85
2023/05/29 05:54:20;;;;;;;7.13;4.07;;;16.10;1.00;;;;;;5000481;28;20447;-86
2023/05/29 05:56:50;;;;;;;9.23;4.27;;;16.20;1.00;;;;;;5006314;28;20455;-87
2023/05/29 05:59:49;;;;;;;6.20;4.07;;;16.30;1.00;;;;;;5006674;28;20482;-87
2023/05/29 06:05:56;;;;;;;610.93;227.77;;;16.40;1.00;;;;;;5015277;28;20594;-85
2023/05/29 06:12:20;;;;;;;6.80;4.03;;;16.60;1.00;;;;;;5016506;28;20396;-83
2023/05/29 06:15:19;;;;;;;5.30;3.70;;;16.70;1.00;;;;;;4999444;28;20429;-82
2023/05/29 06:21:49;;;;;;;8.50;3.33;;;16.90;1.00;;;;;;5015455;28;20433;-82
2023/05/29 06:24:49;;;;;;;8.10;3.70;;;17.00;1.00;;;;;;5014043;28;20514;-83
2023/05/29 06:27:49;;;;;;;5.77;3.60;;;17.10;1.00;;;;;;4995354;28;20404;-82
2023/05/29 06:30:27;;;;;;;11.60;4.07;;;17.20;1.00;;;;;;4986518;28;20434;-83
2023/05/29 06:32:56;;;;;;;6.30;3.63;;;17.40;1.00;;;;;;5001696;28;20413;-83
2023/05/29 06:35:22;;;;;;;10.03;4.27;;;17.50;1.00;;;;;;4998661;28;20443;-83
2023/05/29 06:37:47;;;;;;;6.40;3.80;;;17.60;1.00;;;;;;5016031;28;20457;-83
2023/05/29 06:40:20;;;;;;;8.20;3.97;;;17.70;1.00;;;;;;5009480;28;20184;-83
2023/05/29 06:42:50;;;;;;;6.03;3.60;;;17.90;1.00;;;;;;5015665;28;20191;-83
2023/05/29 06:45:16;;;;;;;10.03;4.07;;;18.00;1.00;;;;;;5016086;28;20454;-83
2023/05/29 06:47:50;;;;;;;9.13;3.67;;;18.20;1.00;;;;;;5014099;28;20449;-83
2023/05/29 06:50:38;;;;;;;5.77;3.37;;;18.30;1.00;;;;;;5015265;28;20613;-82
2023/05/29 06:53:20;;;;;;;6.53;4.03;;;18.50;1.00;;;;;;5011667;28;20451;-85
2023/05/29 06:56:02;;;;;;;8.10;3.80;;;18.60;1.00;;;;;;4997918;28;20419;-85
2023/05/29 06:59:19;;;;;;;7.80;3.90;;;18.70;1.00;;;;;;5016195;28;20526;-85
2023/05/29 07:02:20;;;;;;;13.63;4.50;;;18.80;1.00;;;;;;4998622;28;20450;-85
2023/05/29 07:05:25;;;;;;;6.27;4.07;;;18.90;1.00;;;;;;5000748;28;20501;-85
2023/05/29 07:08:20;;;;;;;11.60;3.97;;;19.00;1.00;;;;;;4995682;28;20421;-85
2023/05/29 07:10:50;;;;;;;7.13;4.37;;;19.10;1.00;;;;;;5010068;28;20505;-84
2023/05/29 07:13:20;;;;;;;7.23;4.33;;;19.10;1.00;;;;;;5015855;28;20423;-84
2023/05/29 07:16:20;;;;;;;87.87;39.27;;;19.20;1.00;;;;;;5014466;28;20450;-85
2023/05/29 07:18:47;;;;;;;9.70;4.10;;;19.30;1.00;;;;;;4988951;28;20532;-85
2023/05/29 07:21:26;;;;;;;6.83;4.00;;;19.50;1.00;;;;;;4997101;28;20456;-85
2023/05/29 07:24:29;;;;;;;8.53;4.20;;;19.60;1.00;;;;;;4994442;28;20480;-83
2023/05/29 07:27:08;;;;;;;8.00;3.07;;;19.80;1.00;;;;;;4987222;28;20440;-83
2023/05/29 07:30:14;;;;;;;5.07;3.60;;;19.80;1.00;;;;;;5015434;28;20860;-83
2023/05/29 07:32:45;;;;;;;15.73;4.30;;;19.90;1.00;;;;;;5010262;28;20428;-78
2023/05/29 07:35:11;;;;;;;8.53;3.90;;;20.00;1.00;;;;;;5013536;28;20512;-79
2023/05/29 07:37:56;;;;;;;8.53;3.60;;;20.10;1.00;;;;;;5013222;28;20480;-84
2023/05/29 07:40:22;;;;;;;136.20;75.50;;;20.20;1.00;;;;;;4995661;28;20166;-84
2023/05/29 07:43:20;;;;;;;8.27;3.90;;;20.20;1.00;;;;;;4985870;28;20781;-84
2023/05/29 07:46:20;;;;;;;9.47;3.40;;;20.30;1.00;;;;;;5013869;28;20461;-84
2023/05/29 07:49:25;;;;;;;4.87;3.70;;;20.30;1.00;;;;;;4995218;28;20426;-84
2023/05/29 07:52:26;;;;;;;7.47;3.50;;;20.40;1.00;;;;;;5013161;28;20433;-86
2023/05/29 07:54:56;;;;;;;4.20;3.07;;;20.50;1.00;;;;;;5009160;28;20435;-79
2023/05/29 07:57:33;;;;;;;575.43;338.73;;;20.60;1.00;;;;;;4990766;28;20522;-80
2023/05/29 08:00:08;;;;;;;8.33;3.67;;;20.70;1.00;;;;;;5010880;28;20836;-79
2023/05/29 08:03:14;;;;;;;5.93;3.53;;;20.70;1.00;;;;;;5014558;28;20422;-79
2023/05/29 08:05:44;;;;;;;7.47;3.40;;;20.90;1.00;;;;;;4994901;28;20586;-79
2023/05/29 08:08:32;;;;;;;9.30;3.50;;;21.00;1.00;;;;;;5014693;28;20433;-85
2023/05/29 08:14:20;;;;;;;5.20;3.30;;;21.20;1.00;;;;;;5009964;28;20960;-83
2023/05/29 08:20:38;;;;;;;307.93;218.00;;;21.50;1.00;;;;;;5013946;28;20271;-84
2023/05/29 08:23:04;;;;;;;530.00;428.63;;;21.60;1.00;;;;;;5011066;28;20439;-74
2023/05/29 08:25:29;;;;;;;920.23;547.70;;;21.70;1.00;;;;;;5014101;28;20455;-74
2023/05/29 08:27:55;;;;;;;826.80;449.33;;;21.70;1.00;;;;;;5005957;28;20249;-73
2023/05/29 08:30:21;;;;;;;767.70;390.87;;;21.80;1.00;;;;;;5008641;28;20182;-73
2023/05/29 08:32:47;;;;;;;18.80;3.73;;;22.00;1.00;;;;;;5009875;28;20651;-73
2023/05/29 08:35:20;;;;;;;67.07;36.43;;;22.00;1.00;;;;;;5012394;28;20432;-73
2023/05/29 08:37:46;;;;;;;326.33;141.83;;;22.10;1.00;;;;;;5010993;28;20181;-73
2023/05/29 08:40:14;;;;;;;311.73;109.57;;;22.30;1.00;;;;;;5001227;28;20452;-78
2023/05/29 08:42:59;;;;;;;12.00;3.97;;;22.30;1.00;;;;;;5012541;28;20174;-78
2023/05/29 08:45:29;;;;;;;22.17;3.87;;;22.50;1.00;;;;;;5012448;28;20956;-78
2023/05/29 08:48:03;;;;;;;10.37;4.90;;;22.50;1.00;;;;;;5011655;28;20517;-77
2023/05/29 08:50:47;;;;;;;7.83;3.60;;;22.50;1.00;;;;;;5005925;28;20433;-78
2023/05/29 08:53:15;;;;;;;84.27;31.10;;;22.60;1.00;;;;;;5013830;28;20413;-76
2023/05/29 08:55:52;;;;;;;8.93;3.53;;;22.70;1.00;;;;;;4999250;28;20429;-78
2023/05/29 08:58:45;;;;;;;8.57;3.20;;;22.80;1.00;;;;;;5000736;28;20441;-78
2023/05/29 09:01:22;;;;;;;7.23;3.60;;;22.80;1.00;;;;;;5013105;28;20844;-78
2023/05/29 09:03:47;;;;;;;12.50;4.37;;;23.00;1.00;;;;;;5013281;28;20438;-79
2023/05/29 09:06:13;;;;;;;6.43;3.10;;;23.10;1.00;;;;;;4995902;28;20465;-78
2023/05/29 09:08:39;;;;;;;20.93;5.00;;;23.10;1.00;;;;;;5013532;28;20183;-73
2023/05/29 09:11:05;;;;;;;13.33;4.10;;;23.20;1.00;;;;;;5012674;28;20781;-73
2023/05/29 09:13:31;;;;;;;10.50;3.97;;;23.40;1.00;;;;;;4994136;28;20178;-73
2023/05/29 09:16:03;;;;;;;197.97;108.27;;;23.40;1.00;;;;;;4998997;28;20436;-73
2023/05/29 09:18:31;;;;;;;12.07;5.13;;;23.60;1.00;;;;;;5010869;28;20433;-73
2023/05/29 09:20:57;;;;;;;34.77;16.13;;;23.70;1.00;;;;;;4992506;28;20431;-73
2023/05/29 09:23:31;;;;;;;10.90;3.57;;;23.80;1.00;;;;;;5013138;28;20413;-74
2023/05/29 09:26:03;;;;;;;14.33;3.70;;;25.40;1.00;;;;;;5013104;28;20970;-78
2023/05/29 09:28:31;;;;;;;755.60;504.60;;;24.00;1.00;;;;;;5011737;28;20443;-78
2023/05/29 09:31:13;;;;;;;801.10;580.20;;;24.10;1.00;;;;;;5008804;28;20535;-78
2023/05/29 09:33:51;;;;;;;5.23;3.20;;;24.20;1.00;;;;;;4988027;28;20530;-78
2023/05/29 09:36:23;;;;;;;4.60;3.00;;;24.20;1.00;;;;;;5013171;28;20403;-78
2023/05/29 09:39:09;;;;;;;40.60;4.13;;;24.40;1.00;;;;;;5008542;28;20434;-78
2023/05/29 09:41:43;;;;;;;10.43;3.90;;;24.40;1.00;;;;;;5009371;28;20429;-78
2023/05/29 09:44:15;;;;;;;5.00;3.27;;;24.40;1.00;;;;;;5012135;28;20416;-79
2023/05/29 09:46:42;;;;;;;14.40;3.20;;;24.50;1.00;;;;;;5012943;28;20426;-78
2023/05/29 09:49:16;;;;;;;13.50;3.40;;;24.60;1.00;;;;;;5006776;28;20797;-78
2023/05/29 09:51:47;;;;;;;6.03;3.10;;;24.80;1.00;;;;;;5012807;28;20768;-78
2023/05/29 09:54:17;;;;;;;3.93;3.23;;;24.90;1.00;;;;;;5000444;28;20409;-78
2023/05/29 09:57:03;;;;;;;4.60;3.27;;;24.90;1.00;;;;;;5010350;28;20488;-78
2023/05/29 09:59:29;;;;;;;4.63;2.87;;;25.00;1.00;;;;;;5000327;28;21012;-77
2023/05/29 10:02:04;;;;;;;9.03;3.20;;;25.10;1.00;;;;;;5000044;28;20422;-78
2023/05/29 10:04:33;;;;;;;4.53;2.50;;;25.10;1.00;;;;;;5012864;28;20284;-77
2023/05/29 10:07:06;;;;;;;5.10;3.40;;;25.10;1.00;;;;;;5012864;28;20422;-77
2023/05/29 10:09:34;;;;;;;6.07;3.53;;;25.20;1.00;;;;;;4999823;28;20853;-75
2023/05/29 10:12:03;;;;;;;10.83;4.50;;;25.30;1.00;;;;;;5003942;28;20933;-74
2023/05/29 10:14:31;;;;;;;6.60;2.97;;;25.50;1.00;;;;;;4986888;28;20482;-76
2023/05/29 10:17:01;;;;;;;7.17;3.00;;;25.40;1.00;;;;;;4998390;28;20481;-76
2023/05/29 10:19:30;;;;;;;9.70;3.10;;;25.60;1.00;;;;;;4992079;28;20481;-76
2023/05/29 10:21:57;;;;;;;3.03;2.70;;;25.60;1.00;;;;;;5010189;28;20542;-75
2023/05/29 10:24:24;;;;;;;5.20;3.20;;;25.60;1.00;;;;;;5013018;28;20532;-75
2023/05/29 10:26:51;;;;;;;7.10;3.33;;;25.70;1.00;;;;;;5012725;28;20750;-76
2023/05/29 10:29:37;;;;;;;3.60;3.10;;;25.80;1.00;;;;;;5012712;28;20422;-75
2023/05/29 10:32:29;;;;;;;3.57;3.03;;;25.60;1.00;;;;;;5012439;28;20930;-75
2023/05/29 10:35:04;;;;;;;7.23;3.30;;;25.80;1.00;;;;;;5015386;28;20442;-75
2023/05/29 10:37:46;;;;;;;8.77;3.27;;;25.80;1.00;;;;;;4998429;28;20450;-75
2023/05/29 10:40:32;;;;;;;10.97;2.60;;;25.80;1.00;;;;;;5005468;28;20481;-78
2023/05/29 10:42:58;;;;;;;3.00;2.53;;;26.10;1.00;;;;;;5015682;28;20440;-76
2023/05/29 10:45:32;;;;;;;16.23;3.50;;;26.20;1.00;;;;;;5016274;28;20793;-76
2023/05/29 10:48:10;;;;;;;7.87;3.20;;;26.20;1.00;;;;;;5014760;28;20450;-77
2023/05/29 10:51:14;;;;;;;8.20;3.37;;;26.30;1.00;;;;;;5007938;28;20426;-78
2023/05/29 10:53:45;;;;;;;9.33;3.23;;;26.30;1.00;;;;;;4987978;28;20436;-82
2023/05/29 10:56:31;;;;;;;11.27;4.37;;;26.30;1.00;;;;;;5009544;28;20436;-76
2023/05/29 10:59:03;;;;;;;4.77;3.23;;;26.50;1.00;;;;;;4996508;28;20904;-77
2023/05/29 11:01:30;;;;;;;6.07;3.17;;;26.50;1.00;;;;;;5012174;28;20438;-78
2023/05/29 11:04:17;;;;;;;6.40;3.00;;;26.50;1.00;;;;;;4989808;28;20956;-79
2023/05/29 11:06:52;;;;;;;17.63;5.63;;;26.70;1.00;;;;;;5014212;28;20994;-78
2023/05/29 11:09:39;;;;;;;10.17;3.87;;;26.70;1.00;;;;;;5010732;28;20432;-75
2023/05/29 11:12:33;;;;;;;6.30;3.27;;;26.80;1.00;;;;;;4997840;28;20426;-83
2023/05/29 11:21:57;;;;;;;11.10;3.87;;;26.90;1.00;;;;;;5007514;28;20398;-83
2023/05/29 11:24:37;;;;;;;9.27;3.70;;;26.80;1.00;;;;;;5015164;28;20932;-82
2023/05/29 11:27:38;;;;;;;8.10;3.10;;;26.90;1.00;;;;;;5015521;28;20983;-82
2023/05/29 11:30:15;;;;;;;5.97;3.13;;;27.00;1.00;;;;;;5004070;28;20921;-82
2023/05/29 11:33:21;;;;;;;13.00;3.00;;;27.00;1.00;;;;;;5007992;28;20979;-82
2023/05/29 11:36:06;;;;;;;4.40;3.20;;;27.10;1.00;;;;;;5015388;28;20751;-82
2023/05/29 11:38:32;;;;;;;5.07;3.40;;;27.20;1.00;;;;;;5015295;28;20457;-83
2023/05/29 11:41:00;;;;;;;4.83;3.40;;;27.40;1.00;;;;;;5011984;28;20428;-75
2023/05/29 11:43:26;;;;;;;8.43;3.23;;;27.50;1.00;;;;;;5007350;28;20414;-75
2023/05/29 11:45:52;;;;;;;6.73;3.07;;;27.70;1.00;;;;;;5001765;28;20943;-75
2023/05/29 11:48:18;;;;;;;7.30;3.20;;;27.70;1.00;;;;;;5013995;28;20198;-75
2023/05/29 11:50:44;;;;;;;6.23;3.43;;;27.70;1.00;;;;;;5013899;28;20192;-75
2023/05/29 11:53:11;;;;;;;4.50;2.80;;;27.80;1.00;;;;;;4996625;28;20638;-75
2023/05/29 11:55:37;;;;;;;9.27;3.27;;;27.90;1.00;;;;;;5014139;28;20326;-75
2023/05/29 11:58:04;;;;;;;28.77;3.90;;;27.80;1.00;;;;;;5012819;28;20889;-75
2023/05/29 12:00:33;;;;;;;6.00;3.37;;;27.80;1.00;;;;;;5012797;28;20183;-75
2023/05/29 12:03:03;;;;;;;12.17;3.57;;;27.90;1.00;;;;;;5002164;28;20768;-75
2023/05/29 12:05:30;;;;;;;9.37;3.90;;;28.00;1.00;;;;;;4996629;28;20527;-75
2023/05/29 12:07:56;;;;;;;9.23;3.73;;;28.10;1.00;;;;;;5014059;28;20443;-75
2023/05/29 12:10:33;;;;;;;6.30;3.20;;;27.90;1.00;;;;;;5014074;28;20432;-82
2023/05/29 12:13:18;;;;;;;10.30;2.93;;;27.90;1.00;;;;;;5014693;28;20420;-83
2023/05/29 12:16:04;;;;;;;4.90;2.70;;;28.10;1.00;;;;;;4997185;28;20951;-82
2023/05/29 12:19:14;;;;;;;7.60;3.20;;;28.30;1.00;;;;;;5001859;28;20422;-83
2023/05/29 12:21:51;;;;;;;9.00;2.97;;;28.40;1.00;;;;;;4987947;28;20514;-83
2023/05/29 12:24:19;;;;;;;6.50;3.00;;;28.50;1.00;;;;;;5008996;28;20423;-82
2023/05/29 12:26:47;;;;;;;5.90;3.30;;;28.50;1.00;;;;;;5003033;28;20462;-74
2023/05/29 12:29:13;;;;;;;5.43;2.97;;;28.50;1.00;;;;;;4994941;28;20463;-75
2023/05/29 12:31:39;;;;;;;12.00;2.80;;;28.50;1.00;;;;;;5014085;28;20446;-75
2023/05/29 12:34:15;;;;;;;3.60;2.80;;;28.50;1.00;;;;;;5013795;28;20169;-75
2023/05/29 12:36:44;;;;;;;10.33;3.10;;;28.50;1.00;;;;;;5014050;28;20502;-75
2023/05/29 12:39:15;;;;;;;16.60;2.97;;;28.50;1.00;;;;;;5013612;28;20429;-75
2023/05/29 12:41:41;;;;;;;10.70;3.43;;;28.70;1.00;;;;;;5013553;28;20424;-75
2023/05/29 12:44:07;;;;;;;4.17;2.93;;;28.70;1.00;;;;;;5013822;28;20465;-74
2023/05/29 12:46:38;;;;;;;8.70;3.20;;;28.80;1.00;;;;;;5013225;28;20211;-75
2023/05/29 12:49:20;;;;;;;6.60;2.93;;;28.90;1.00;;;;;;5005266;28;20431;-75
2023/05/29 12:51:47;;;;;;;6.03;2.90;;;29.00;1.00;;;;;;5007428;28;20508;-75
2023/05/29 12:54:14;;;;;;;3.33;2.60;;;29.20;1.00;;;;;;5000076;28;20403;-75
2023/05/29 12:56:40;;;;;;;14.83;3.40;;;29.20;1.00;;;;;;5004220;28;20424;-75
2023/05/29 12:59:09;;;;;;;4.50;3.50;;;29.40;1.00;;;;;;5000851;28;20419;-75
2023/05/29 13:01:40;;;;;;;4.30;3.07;;;29.40;1.00;;;;;;5002083;28;20421;-75
2023/05/29 13:04:09;;;;;;;8.00;3.33;;;29.50;1.00;;;;;;5016787;28;20470;-75
2023/05/29 13:06:36;;;;;;;4.20;2.83;;;29.60;1.00;;;;;;5011945;28;20523;-75
2023/05/29 13:09:03;;;;;;;3.80;2.43;;;29.80;1.00;;;;;;5013746;28;20730;-74
2023/05/29 13:11:28;;;;;;;9.20;3.00;;;29.80;1.00;;;;;;5013704;28;20408;-75
2023/05/29 13:13:54;;;;;;;2.77;2.57;;;29.80;1.00;;;;;;5013648;28;20474;-75
2023/05/29 13:16:21;;;;;;;6.60;3.10;;;30.00;1.00;;;;;;5007017;28;20236;-75
2023/05/29 13:18:51;;;;;;;3.97;2.60;;;30.10;1.00;;;;;;5012544;28;20260;-75
2023/05/29 13:21:21;;;;;;;5.90;3.10;;;30.20;1.00;;;;;;5013340;28;20482;-75
2023/05/29 13:23:51;;;;;;;7.00;3.27;;;30.20;1.00;;;;;;5011404;28;20935;-75
2023/05/29 13:26:44;;;;;;;6.67;3.00;;;30.40;1.00;;;;;;5007993;28;20976;-82
2023/05/29 13:29:10;;;;;;;3.93;3.13;;;30.30;1.00;;;;;;5004701;28;20427;-82
2023/05/29 13:31:51;;;;;;;255.83;226.60;;;30.20;1.00;;;;;;4998008;28;20425;-82
2023/05/29 13:34:28;;;;;;;159.07;122.90;;;30.20;1.00;;;;;;5010513;28;20632;-82
2023/05/29 13:37:09;;;;;;;361.10;298.60;;;30.20;1.00;;;;;;5013483;28;20401;-82
2023/05/29 13:40:15;;;;;;;7.30;3.40;;;30.10;1.00;;;;;;5000469;28;20768;-82
2023/05/29 13:42:41;;;;;;;273.43;243.33;;;30.10;1.00;;;;;;4995764;28;20423;-75
2023/05/29 13:45:07;;;;;;;6.63;3.67;;;29.90;1.00;;;;;;5013364;28;20440;-74
2023/05/29 13:47:34;;;;;;;4.80;2.57;;;29.90;1.00;;;;;;5007488;28;20429;-75
2023/05/29 13:50:00;;;;;;;4.37;2.90;;;30.00;1.00;;;;;;4999975;28;20498;-76
2023/05/29 13:52:27;;;;;;;8.90;3.10;;;30.20;1.00;;;;;;4999669;28;20789;-75
2023/05/29 13:54:52;;;;;;;12.30;4.63;;;30.20;1.00;;;;;;5012428;28;20177;-75
2023/05/29 13:57:18;;;;;;;6.30;3.50;;;30.40;1.00;;;;;;5012277;28;20506;-82
2023/05/29 13:59:44;;;;;;;11.37;3.33;;;30.50;1.00;;;;;;5013106;28;20454;-82
2023/05/29 14:02:27;;;;;;;11.80;2.73;;;30.60;1.00;;;;;;5013064;28;20177;-82
2023/05/29 14:08:14;;;;;;;9.53;2.90;;;30.70;1.00;;;;;;5016760;28;20426;-82
2023/05/29 14:11:02;;;;;;;12.53;3.57;;;30.70;1.00;;;;;;5016762;28;20776;-82
2023/05/29 14:13:29;;;;;;;5.87;2.90;;;30.80;1.00;;;;;;5017198;28;20785;-82
2023/05/29 14:15:56;;;;;;;6.40;3.40;;;30.60;1.00;;;;;;5003186;28;20442;-82
2023/05/29 14:18:27;;;;;;;6.30;3.20;;;30.70;1.00;;;;;;5015057;28;20925;-82
2023/05/29 14:20:53;;;;;;;5.30;2.83;;;30.80;1.00;;;;;;5016770;28;20419;-82
2023/05/29 14:23:38;;;;;;;6.17;3.00;;;30.90;1.00;;;;;;5015010;28;20427;-82
2023/05/29 14:26:21;;;;;;;12.40;3.47;;;31.00;1.00;;;;;;5016619;28;20451;-82
2023/05/29 14:28:51;;;;;;;10.40;3.20;;;31.00;1.00;;;;;;5014050;28;20927;-75
2023/05/29 14:31:16;;;;;;;11.23;3.27;;;31.00;1.00;;;;;;5014919;28;20412;-75
2023/05/29 14:33:45;;;;;;;11.13;3.70;;;31.00;1.00;;;;;;5016349;28;20435;-75
2023/05/29 14:36:10;;;;;;;7.97;4.10;;;30.90;1.00;;;;;;5015473;28;20213;-75
2023/05/29 14:38:36;;;;;;;12.73;3.30;;;30.70;1.00;;;;;;5016329;28;20911;-75
2023/05/29 14:41:02;;;;;;;18.10;3.17;;;30.70;1.00;;;;;;5016076;28;20532;-75
2023/05/29 14:43:28;;;;;;;31.17;3.53;;;30.80;1.00;;;;;;5016535;28;20188;-75
2023/05/29 14:45:54;;;;;;;10.40;3.90;;;31.10;1.00;;;;;;5015147;28;20959;-75
2023/05/29 14:48:19;;;;;;;10.33;3.53;;;31.00;1.00;;;;;;4995073;28;20178;-75
2023/05/29 14:50:45;;;;;;;5.80;3.10;;;30.80;1.00;;;;;;4998009;28;20758;-75
2023/05/29 14:53:11;;;;;;;5.70;3.07;;;30.80;1.00;;;;;;5002576;28;20189;-75
2023/05/29 14:55:37;;;;;;;4.93;3.10;;;30.80;1.00;;;;;;5012196;28;20262;-75
2023/05/29 14:58:32;;;;;;;21.60;3.37;;;30.80;1.00;;;;;;5016258;28;20181;-82
2023/05/29 15:00:58;;;;;;;7.37;3.80;;;30.90;1.00;;;;;;5013426;28;20463;-82